< < Back
Terminal Aerodrome Forecast


Current Version              Previous Versions:   1  2  3  4  5  6  7  8  9  

Terminal Aerodrome Forecast

480
FTUS42 KMLB 301700 RRA
TAFDAB
TAF
KDAB 301744Z 3018/3118 32005KT P6SM SCT040 SCT100 SCT250
     FM302000 05008KT P6SM VCSH SCT040 SCT250
     FM310200 VRB03KT P6SM SCT040 SCT250
     FM311300 30007KT P6SM SCT050 SCT250=



Latest METAR

968
SAUS80 KWBC 301800 RRA
MTRDAB
METAR KDAB 301753Z 28006KT 10SM FEW043 SCT120 SCT250 28/17 A2993 RMK AO2
SLP135 T02780167 10283 20178 58019


USA.gov is the U.S. government's official web portal to all federal, state and local government web resources and services.